Garfield, Iowa
Current Conditions -  °F | °C
As of 6:10 PM on Saturday 20 Dec 2014 (Local Time) from KTVK Reporting Station
Overcast Overcast  
Wind Chill: 30°   Ceiling: 300
Heat Index: 36°   Visibility: 10mi
Dew Point: 36°   Wind: 7mph
Humidity: 100%   Direction: 160°SSE
Pressure: 30.16"   Gusts: NA
Location:  40.8017°N, 92.9289°W
Report Text: KTVK 210010Z AUTO 16006KT 10SM OVC003 02/02 A3016 RMK AO2
Loading
Personal Weather Stations






























Interactive Weather Map New forecast layout! Learn more

10-Day Weather Forecast

Advertisements
Track Severe Weather on mobile